Aérodrome :
LOGIN :

S'inscrire | Disclaimer

   EN    FR    IT 

 










Légende :    VFR   VFR Marginal   IFR   IFR Intensif   IFR Très Intensif
Visi : 
Plafond : 
>= 8 km
>= 3000ft
5 à 8 km
1000 à 3000 ft
1500m à 5 km
500 à 1000 ft
800 à 1500m
200 à 500 ft
< 800m
< 200 ft
Symboles :   Orages  Brouillard  Fortes neiges  Fortes précipitations  Vent > 20 kt
SIGMETs :   Divers  Orages  Givrage  Turbulence  Onde Orograph.  Cendres Volcan.







- Altitude de l'aérodrome : 1910 ft
- Code IATA : RDZ
- Voir les cartes d'approche


LFCR - Rodez

METARs EXPIRÉS :
  • 220030Z AUTO 02009KT 9999 OVC030 01/M06 Q1009 NOSIG
  • 220000Z AUTO 02013KT 9999 OVC031 01/M05 Q1009 NOSIG

TAF TAF LFCR
Valide du 22 à 00h jusqu'au 23 à 00h UTC


212300Z 2200/2224 02012KT CAVOK
TEMPO 2208/2214 SCT016
Pas de NOTAMs connus pour ce terrain.
2 SIGMETs publiés pour la FIR Bordeaux (LFBB) :
 
Turbulence forte
LFBB SIGMET 2 VALID 220200/220600 LFPW
LFBB BORDEAUX FIR/UIR SEV TURB FCST WI N4630 E00300 - N4215 E00230 - N4230 E00115 - N4630 E00300 FL170/250 STNR NC=
Turbulence forte
LFBB SIGMET 1 VALID 220000/220400 LFPW
LFBB BORDEAUX FIR/UIR SEV TURB FCST WI N4300 E00230 - N4215 E00230 - N4215 E00215 - N4300 E00215 - N4300 E00230 SFC/FL050 STNR NC=



MET'MAP, la Météo Aéronautique d'un coup d'oeil ! - Copyright ORBIFLY Décembre 2007 - Disclaimer

ORBIFLY MET'MAP TEAM :

Programmation & Développement : Alexandra Zaïnal
Conception & Développement : Baudouin d'Aumeries
Co-Programmation & Développement : Marc-Olivier Méhu
Soutien technique & logistique : Manuel Goepfert

Contact : metmap@orbifly.com




SOURCES & CREDITS :

   NOAA